Conover, North Carolina
Current Conditions -  °F | °C
As of 10:53 AM on Thursday 23 Oct 2014 (Local Time) from KHKY Reporting Station
Clear Clear  
Wind Chill: 56°   Ceiling: Unl
Heat Index: 56°   Visibility: 10mi
Dew Point: 40°   Wind: 7mph
Humidity: 55%   Direction: NA
Pressure: 30.09"   Gusts: NA
Location:  35.71°N, 81.22°W
Report Text: KHKY 231453Z VRB06KT 10SM CLR 13/04 A3009 RMK AO2 SLP178 T01330044 50002
Loading
Personal Weather Stations






























Interactive Weather Map
Tropical Storm Tracking
New forecast layout! Learn more

10-Day Weather Forecast

Advertisements
Track Severe Weather on mobile